createdAt,value
2017-11-11T00:00:13.973Z,1001.95
2017-11-11T00:00:54.555Z,1002.01
2017-11-11T00:01:35.133Z,1002.02
2017-11-11T00:02:15.735Z,1001.99
2017-11-11T00:02:56.353Z,1001.96
2017-11-11T00:03:37.007Z,1001.98
2017-11-11T00:04:17.589Z,1002.01
2017-11-11T00:04:58.209Z,1002.04
2017-11-11T00:05:38.795Z,1002
2017-11-11T00:06:19.410Z,1002.02
2017-11-11T00:07:00.027Z,1002.08
2017-11-11T00:07:40.619Z,1001.97
2017-11-11T00:08:21.188Z,1002.01
2017-11-11T00:09:01.776Z,1002.1
2017-11-11T00:09:42.370Z,1001.93
2017-11-11T00:10:22.968Z,1002
2017-11-11T00:11:03.585Z,1002.08
2017-11-11T00:11:44.154Z,1002.01
2017-11-11T00:12:24.869Z,1002.01
2017-11-11T00:13:05.984Z,1002.1
2017-11-11T00:13:46.688Z,1002.09
2017-11-11T00:14:27.602Z,1002.02
2017-11-11T00:15:08.199Z,1002.03
2017-11-11T00:15:48.963Z,1002.05
2017-11-11T00:16:29.639Z,1002
2017-11-11T00:17:10.172Z,1001.99
2017-11-11T00:17:50.916Z,1002.03
2017-11-11T00:18:31.550Z,1002
2017-11-11T00:19:12.166Z,1002.02
2017-11-11T00:19:52.746Z,1002.07
2017-11-11T00:20:33.338Z,1002
2017-11-11T00:21:13.969Z,1002.07
2017-11-11T00:21:54.539Z,1002.12
2017-11-11T00:22:35.226Z,1002.07
2017-11-11T00:23:15.852Z,1002.04
2017-11-11T00:23:56.473Z,1002.06
2017-11-11T00:24:37.086Z,1002.11
2017-11-11T00:25:17.747Z,1002.16
2017-11-11T00:25:58.339Z,1002.13
2017-11-11T00:26:38.937Z,1002.13
2017-11-11T00:27:19.541Z,1002.13
2017-11-11T00:28:00.125Z,1002.14
2017-11-11T00:28:40.694Z,1002.11
2017-11-11T00:29:21.285Z,1002.15
2017-11-11T00:30:01.929Z,1002.04
2017-11-11T00:30:42.510Z,1002.11
2017-11-11T00:31:23.242Z,1002.17
2017-11-11T00:32:03.864Z,1002.2
2017-11-11T00:32:44.431Z,1002.15
2017-11-11T00:33:25.049Z,1002.23
2017-11-11T00:34:05.608Z,1002.25
2017-11-11T00:34:46.212Z,1002.15
2017-11-11T00:35:26.799Z,1002.24
2017-11-11T00:36:07.399Z,1002.21
2017-11-11T00:36:47.986Z,1002.18
2017-11-11T00:37:28.574Z,1002.23
2017-11-11T00:38:09.160Z,1002.18
2017-11-11T00:38:49.756Z,1002.2
2017-11-11T00:39:30.330Z,1002.14
2017-11-11T00:40:10.930Z,1002.12
2017-11-11T00:40:51.544Z,1002.18
2017-11-11T00:41:32.114Z,1002.12
2017-11-11T00:42:12.703Z,1002.14
2017-11-11T00:42:53.330Z,1002.16
2017-11-11T00:43:33.935Z,1002.14
2017-11-11T00:44:14.559Z,1002.15
2017-11-11T00:44:55.102Z,1002.18
2017-11-11T00:45:35.703Z,1002.18
2017-11-11T00:46:16.323Z,1002.15
2017-11-11T00:46:56.904Z,1002.11
2017-11-11T00:47:37.515Z,1002.2
2017-11-11T00:48:18.092Z,1002.15
2017-11-11T00:48:58.707Z,1002.14
2017-11-11T00:49:39.304Z,1002.19
2017-11-11T00:50:19.934Z,1002.12
2017-11-11T00:51:00.521Z,1002.15
2017-11-11T00:51:41.103Z,1002.16
2017-11-11T00:52:21.688Z,1002.22
2017-11-11T00:53:02.272Z,1002.19
2017-11-11T00:53:42.866Z,1002.22
2017-11-11T00:54:23.465Z,1002.23
2017-11-11T00:55:04.102Z,1002.21
2017-11-11T00:55:44.681Z,1002.2
2017-11-11T00:56:25.279Z,1002.12
2017-11-11T00:57:05.921Z,1002.2
2017-11-11T00:57:46.521Z,1002.2
2017-11-11T00:58:27.132Z,1002.18
2017-11-11T00:59:07.747Z,1002.18
2017-11-11T00:59:48.330Z,1002.22
2017-11-11T01:00:28.941Z,1002.24
2017-11-11T01:01:09.523Z,1002.17
2017-11-11T01:01:50.120Z,1002.25
2017-11-11T01:02:30.707Z,1002.18
2017-11-11T01:03:11.324Z,1002.29
2017-11-11T01:03:51.919Z,1002.19
2017-11-11T01:04:32.488Z,1002.2
2017-11-11T01:05:13.078Z,1002.26
2017-11-11T01:05:53.666Z,1002.22
2017-11-11T01:06:34.300Z,1002.22
2017-11-11T01:07:14.897Z,1002.14
2017-11-11T01:07:55.500Z,1002.19
2017-11-11T01:08:36.085Z,1002.3
2017-11-11T01:09:16.659Z,1002.25
2017-11-11T01:09:57.228Z,1002.21
2017-11-11T01:10:37.790Z,1002.21
2017-11-11T01:11:18.381Z,1002.2
2017-11-11T01:11:58.982Z,1002.21
2017-11-11T01:12:39.572Z,1002.21
2017-11-11T01:13:20.161Z,1002.14
2017-11-11T01:14:00.748Z,1002.21
2017-11-11T01:14:41.324Z,1002.21
2017-11-11T01:15:21.886Z,1002.26
2017-11-11T01:16:02.448Z,1002.25
2017-11-11T01:16:43.023Z,1002.22
2017-11-11T01:17:23.593Z,1002.17
2017-11-11T01:18:04.165Z,1002.27
2017-11-11T01:18:44.759Z,1002.13
2017-11-11T01:19:25.308Z,1002.2
2017-11-11T01:20:05.865Z,1002.23
2017-11-11T01:20:46.432Z,1002.22
2017-11-11T01:21:27.002Z,1002.29
2017-11-11T01:22:07.573Z,1002.21
2017-11-11T01:22:48.142Z,1002.21
2017-11-11T01:23:28.707Z,1002.23
2017-11-11T01:24:09.312Z,1002.22
2017-11-11T01:24:49.912Z,1002.24
2017-11-11T01:25:30.487Z,1002.25
2017-11-11T01:26:11.051Z,1002.18
2017-11-11T01:26:51.615Z,1002.25
2017-11-11T01:27:32.186Z,1002.23
2017-11-11T01:28:12.764Z,1002.2
2017-11-11T01:28:53.349Z,1002.24
2017-11-11T01:29:33.926Z,1002.25
2017-11-11T01:30:14.487Z,1002.18
2017-11-11T01:30:55.058Z,1002.19
2017-11-11T01:31:35.634Z,1002.23
2017-11-11T01:32:16.193Z,1002.13
2017-11-11T01:32:56.756Z,1002.23
2017-11-11T01:33:37.344Z,1002.2
2017-11-11T01:34:17.924Z,1002.14
2017-11-11T01:34:58.513Z,1002.2
2017-11-11T01:35:39.122Z,1002.21
2017-11-11T01:36:19.708Z,1002.14
2017-11-11T01:37:00.274Z,1002.25
2017-11-11T01:37:40.846Z,1002.07
2017-11-11T01:38:21.412Z,1002.15
2017-11-11T01:39:01.990Z,1002.16
2017-11-11T01:39:42.561Z,1002.21
2017-11-11T01:40:23.128Z,1002.16
2017-11-11T01:41:03.689Z,1002.16
2017-11-11T01:41:44.258Z,1002.06
2017-11-11T01:42:24.900Z,1002.2
2017-11-11T01:43:05.471Z,1002.09
2017-11-11T01:43:46.291Z,1002.16
2017-11-11T01:44:26.878Z,1002.04
2017-11-11T01:45:07.433Z,1002.06
2017-11-11T01:45:47.997Z,1002.01
2017-11-11T01:46:28.579Z,1002.16
2017-11-11T01:47:09.158Z,1002.1
2017-11-11T01:47:49.766Z,1002.08
2017-11-11T01:48:30.337Z,1002.08
2017-11-11T01:49:10.889Z,1002.06
2017-11-11T01:49:51.468Z,1002.14
2017-11-11T01:50:32.039Z,1002.1
2017-11-11T01:51:12.624Z,1002.12
2017-11-11T01:51:53.193Z,1002.12
2017-11-11T01:52:33.758Z,1002.01
2017-11-11T01:53:14.345Z,1002.05
2017-11-11T01:53:54.949Z,1002.03
2017-11-11T01:54:35.536Z,1002.05
2017-11-11T01:55:16.096Z,1002
2017-11-11T01:55:56.701Z,1002.07
2017-11-11T01:56:37.267Z,1002.05
2017-11-11T01:57:17.871Z,1002.03
2017-11-11T01:57:58.436Z,1002.01
2017-11-11T01:58:39.021Z,1002.03
2017-11-11T01:59:19.619Z,1002
2017-11-11T02:00:00.212Z,1002.04
2017-11-11T02:00:40.782Z,1002.01
2017-11-11T02:01:21.362Z,1002.06
2017-11-11T02:02:01.963Z,1001.97
2017-11-11T02:02:42.522Z,1002.01
2017-11-11T02:03:23.126Z,1002.04
2017-11-11T02:04:03.686Z,1002
2017-11-11T02:04:44.275Z,1001.93
2017-11-11T02:05:24.843Z,1001.96
2017-11-11T02:06:05.420Z,1001.96
2017-11-11T02:06:46.010Z,1002
2017-11-11T02:07:26.594Z,1002.09
2017-11-11T02:08:07.171Z,1001.91
2017-11-11T02:08:47.743Z,1002.01
2017-11-11T02:09:28.315Z,1002.03
2017-11-11T02:10:08.929Z,1001.98
2017-11-11T02:10:49.514Z,1001.99
2017-11-11T02:11:30.083Z,1002
2017-11-11T02:12:10.689Z,1001.93
2017-11-11T02:12:51.278Z,1002.02
2017-11-11T02:13:31.854Z,1002.02
2017-11-11T02:14:12.451Z,1001.97
2017-11-11T02:14:53.095Z,1002.02
2017-11-11T02:15:33.686Z,1001.98
2017-11-11T02:16:14.332Z,1002.03
2017-11-11T02:16:54.909Z,1001.99
2017-11-11T02:17:35.465Z,1002.02
2017-11-11T02:18:16.055Z,1002.05
2017-11-11T02:18:56.669Z,1002.02
2017-11-11T02:19:37.299Z,1002.02
2017-11-11T02:20:17.863Z,1001.99
2017-11-11T02:20:58.422Z,1001.99
2017-11-11T02:21:39.010Z,1001.96
2017-11-11T02:22:19.599Z,1001.95
2017-11-11T02:23:00.191Z,1001.89
2017-11-11T02:23:40.757Z,1001.98
2017-11-11T02:24:21.326Z,1001.92
2017-11-11T02:25:01.933Z,1001.96
2017-11-11T02:25:42.532Z,1001.97
2017-11-11T02:26:23.138Z,1001.91
2017-11-11T02:27:03.724Z,1001.9
2017-11-11T02:27:44.314Z,1001.93
2017-11-11T02:28:24.930Z,1001.92
2017-11-11T02:29:05.524Z,1001.9
2017-11-11T02:29:46.074Z,1001.9
2017-11-11T02:30:26.721Z,1001.87
2017-11-11T02:31:07.335Z,1001.91
2017-11-11T02:31:47.897Z,1001.86
2017-11-11T02:32:28.495Z,1001.92
2017-11-11T02:33:09.064Z,1001.89
2017-11-11T02:33:49.656Z,1001.94
2017-11-11T02:34:30.231Z,1001.94
2017-11-11T02:35:10.814Z,1001.89
2017-11-11T02:35:51.402Z,1001.81
2017-11-11T02:36:31.997Z,1001.87
2017-11-11T02:37:12.565Z,1001.84
2017-11-11T02:37:53.169Z,1001.77
2017-11-11T02:38:33.731Z,1001.81
2017-11-11T02:39:14.326Z,1001.8
2017-11-11T02:39:54.888Z,1001.82
2017-11-11T02:40:35.497Z,1001.75
2017-11-11T02:41:16.076Z,1001.73
2017-11-11T02:41:56.667Z,1001.8
2017-11-11T02:42:37.250Z,1001.73
2017-11-11T02:43:17.845Z,1001.79
2017-11-11T02:43:58.422Z,1001.77
2017-11-11T02:44:39.043Z,1001.78
2017-11-11T02:45:19.672Z,1001.77
2017-11-11T02:46:00.237Z,1001.76
2017-11-11T02:46:40.792Z,1001.75
2017-11-11T02:47:21.426Z,1001.7
2017-11-11T02:48:02.027Z,1001.72
2017-11-11T02:48:42.595Z,1001.76
2017-11-11T02:49:23.147Z,1001.75
2017-11-11T02:50:03.720Z,1001.76
2017-11-11T02:50:44.275Z,1001.75
2017-11-11T02:51:24.875Z,1001.79
2017-11-11T02:52:05.449Z,1001.83
2017-11-11T02:52:46.020Z,1001.83
2017-11-11T02:53:26.616Z,1001.87
2017-11-11T02:54:07.179Z,1001.84
2017-11-11T02:54:47.757Z,1001.72
2017-11-11T02:55:28.374Z,1001.83
2017-11-11T02:56:08.965Z,1001.83
2017-11-11T02:56:49.563Z,1001.85
2017-11-11T02:57:30.161Z,1001.8
2017-11-11T02:58:10.760Z,1001.78
2017-11-11T02:58:51.340Z,1001.79
2017-11-11T02:59:31.960Z,1001.77
2017-11-11T03:00:12.548Z,1001.76
2017-11-11T03:00:53.159Z,1001.84
2017-11-11T03:01:33.752Z,1001.76
2017-11-11T03:02:14.331Z,1001.79
2017-11-11T03:02:54.927Z,1001.69
2017-11-11T03:03:35.527Z,1001.76
2017-11-11T03:04:16.135Z,1001.75
2017-11-11T03:04:56.729Z,1001.75
2017-11-11T03:05:37.304Z,1001.79
2017-11-11T03:06:17.898Z,1001.75
2017-11-11T03:06:58.498Z,1001.69
2017-11-11T03:07:39.069Z,1001.8
2017-11-11T03:08:19.652Z,1001.78
2017-11-11T03:09:00.232Z,1001.77
2017-11-11T03:09:40.819Z,1001.83
2017-11-11T03:10:21.426Z,1001.83
2017-11-11T03:11:02.005Z,1001.8
2017-11-11T03:11:42.583Z,1001.87
2017-11-11T03:12:23.161Z,1001.76
2017-11-11T03:13:03.745Z,1001.74
2017-11-11T03:13:44.317Z,1001.81
2017-11-11T03:14:24.900Z,1001.84
2017-11-11T03:15:05.478Z,1001.82
2017-11-11T03:15:46.047Z,1001.79
2017-11-11T03:16:26.669Z,1001.79
2017-11-11T03:17:07.258Z,1001.8
2017-11-11T03:17:47.849Z,1001.82
2017-11-11T03:18:28.431Z,1001.85
2017-11-11T03:19:09.004Z,1001.78
2017-11-11T03:19:49.604Z,1001.85
2017-11-11T03:20:30.196Z,1001.84
2017-11-11T03:21:10.772Z,1001.79
2017-11-11T03:21:51.353Z,1001.86
2017-11-11T03:22:31.926Z,1001.86
2017-11-11T03:23:12.493Z,1001.75
2017-11-11T03:23:53.079Z,1001.81
2017-11-11T03:24:33.660Z,1001.75
2017-11-11T03:25:14.235Z,1001.69
2017-11-11T03:25:54.813Z,1001.76
2017-11-11T03:26:35.397Z,1001.77
2017-11-11T03:27:16.006Z,1001.89
2017-11-11T03:27:56.566Z,1001.81
2017-11-11T03:28:37.141Z,1001.74
2017-11-11T03:29:17.746Z,1001.74
2017-11-11T03:29:58.335Z,1001.75
2017-11-11T03:30:38.924Z,1001.77
2017-11-11T03:31:19.504Z,1001.77
2017-11-11T03:32:00.088Z,1001.78
2017-11-11T03:32:40.713Z,1001.69
2017-11-11T03:33:21.283Z,1001.75
2017-11-11T03:34:01.881Z,1001.8
2017-11-11T03:34:42.477Z,1001.74
2017-11-11T03:35:23.053Z,1001.7
2017-11-11T03:36:03.623Z,1001.68
2017-11-11T03:36:44.221Z,1001.76
2017-11-11T03:37:24.806Z,1001.72
2017-11-11T03:38:05.387Z,1001.69
2017-11-11T03:38:45.997Z,1001.65
2017-11-11T03:39:26.658Z,1001.66
2017-11-11T03:40:07.242Z,1001.66
2017-11-11T03:40:47.825Z,1001.64
2017-11-11T03:41:28.401Z,1001.62
2017-11-11T03:42:08.976Z,1001.7
2017-11-11T03:42:49.543Z,1001.59
2017-11-11T03:43:30.123Z,1001.61
2017-11-11T03:44:10.718Z,1001.69
2017-11-11T03:44:51.302Z,1001.61
2017-11-11T03:45:31.909Z,1001.6
2017-11-11T03:46:12.556Z,1001.65
2017-11-11T03:46:53.127Z,1001.62
2017-11-11T03:47:33.722Z,1001.66
2017-11-11T03:48:14.337Z,1001.6
2017-11-11T03:48:54.918Z,1001.61
2017-11-11T03:49:35.499Z,1001.59
2017-11-11T03:50:16.090Z,1001.62
2017-11-11T03:50:56.655Z,1001.52
2017-11-11T03:51:37.243Z,1001.6
2017-11-11T03:52:17.815Z,1001.62
2017-11-11T03:52:58.391Z,1001.57
2017-11-11T03:53:38.966Z,1001.57
2017-11-11T03:54:19.585Z,1001.6
2017-11-11T03:55:00.171Z,1001.63
2017-11-11T03:55:40.767Z,1001.58
2017-11-11T03:56:21.349Z,1001.49
2017-11-11T03:57:01.963Z,1001.56
2017-11-11T03:57:42.557Z,1001.56
2017-11-11T03:58:23.165Z,1001.54
2017-11-11T03:59:03.766Z,1001.53
2017-11-11T03:59:44.359Z,1001.55
2017-11-11T04:00:24.960Z,1001.62
2017-11-11T04:01:05.577Z,1001.52
2017-11-11T04:01:46.205Z,1001.51
2017-11-11T04:02:26.775Z,1001.52
2017-11-11T04:03:07.386Z,1001.49
2017-11-11T04:03:47.976Z,1001.49
2017-11-11T04:04:28.585Z,1001.48
2017-11-11T04:05:09.171Z,1001.56
2017-11-11T04:05:49.748Z,1001.53
2017-11-11T04:06:30.342Z,1001.54
2017-11-11T04:07:10.938Z,1001.52
2017-11-11T04:07:51.531Z,1001.56
2017-11-11T04:08:32.151Z,1001.57
2017-11-11T04:09:12.745Z,1001.55
2017-11-11T04:09:53.356Z,1001.58
2017-11-11T04:10:33.955Z,1001.53
2017-11-11T04:11:14.564Z,1001.52
2017-11-11T04:11:55.167Z,1001.6
2017-11-11T04:12:35.768Z,1001.57
2017-11-11T04:13:16.357Z,1001.58
2017-11-11T04:13:56.983Z,1001.54
2017-11-11T04:14:37.555Z,1001.59
2017-11-11T04:15:18.188Z,1001.53
2017-11-11T04:15:58.761Z,1001.52
2017-11-11T04:16:39.366Z,1001.54
2017-11-11T04:17:19.942Z,1001.51
2017-11-11T04:18:00.551Z,1001.46
2017-11-11T04:18:41.159Z,1001.42
2017-11-11T04:19:21.748Z,1001.55
2017-11-11T04:20:02.366Z,1001.53
2017-11-11T04:20:42.965Z,1001.53
2017-11-11T04:21:23.572Z,1001.48
2017-11-11T04:22:04.170Z,1001.55
2017-11-11T04:22:44.760Z,1001.45
2017-11-11T04:23:25.372Z,1001.57
2017-11-11T04:24:05.976Z,1001.52
2017-11-11T04:24:46.541Z,1001.54
2017-11-11T04:25:27.137Z,1001.54
2017-11-11T04:26:07.738Z,1001.42
2017-11-11T04:26:48.350Z,1001.51
2017-11-11T04:27:28.942Z,1001.47
2017-11-11T04:28:09.520Z,1001.39
2017-11-11T04:28:50.138Z,1001.37
2017-11-11T04:29:30.746Z,1001.45
2017-11-11T04:30:11.341Z,1001.45
2017-11-11T04:30:51.929Z,1001.51
2017-11-11T04:31:32.546Z,1001.34
2017-11-11T04:32:13.156Z,1001.44
2017-11-11T04:32:53.758Z,1001.45
2017-11-11T04:33:34.357Z,1001.43
2017-11-11T04:34:14.975Z,1001.46
2017-11-11T04:34:55.558Z,1001.42
2017-11-11T04:35:36.130Z,1001.41
2017-11-11T04:36:16.736Z,1001.41
2017-11-11T04:36:57.313Z,1001.41
2017-11-11T04:37:37.909Z,1001.34
2017-11-11T04:38:18.481Z,1001.41
2017-11-11T04:38:59.073Z,1001.42
2017-11-11T04:39:39.657Z,1001.41
2017-11-11T04:40:20.247Z,1001.46
2017-11-11T04:41:00.843Z,1001.5
2017-11-11T04:41:41.452Z,1001.51
2017-11-11T04:42:22.041Z,1001.54
2017-11-11T04:43:02.621Z,1001.51
2017-11-11T04:43:43.218Z,1001.52
2017-11-11T04:44:23.829Z,1001.53
2017-11-11T04:45:04.446Z,1001.44
2017-11-11T04:45:45.050Z,1001.44
2017-11-11T04:46:25.642Z,1001.46
2017-11-11T04:47:06.253Z,1001.52
2017-11-11T04:47:46.843Z,1001.45
2017-11-11T04:48:27.587Z,1001.44
2017-11-11T04:49:08.177Z,1001.41
2017-11-11T04:49:48.747Z,1001.52
2017-11-11T04:50:29.368Z,1001.52
2017-11-11T04:51:09.966Z,1001.46
2017-11-11T04:51:50.584Z,1001.51
2017-11-11T04:52:31.164Z,1001.46
2017-11-11T04:53:11.742Z,1001.44
2017-11-11T04:53:52.321Z,1001.45
2017-11-11T04:54:32.911Z,1001.42
2017-11-11T04:55:13.524Z,1001.45
2017-11-11T04:55:54.122Z,1001.46
2017-11-11T04:56:34.724Z,1001.46
2017-11-11T04:57:15.300Z,1001.47
2017-11-11T04:57:55.904Z,1001.47
2017-11-11T04:58:36.489Z,1001.41
2017-11-11T04:59:17.096Z,1001.45
2017-11-11T04:59:57.711Z,1001.47
2017-11-11T05:00:38.294Z,1001.42
2017-11-11T05:01:18.876Z,1001.43
2017-11-11T05:01:59.454Z,1001.44
2017-11-11T05:02:40.028Z,1001.4
2017-11-11T05:03:20.598Z,1001.32
2017-11-11T05:04:01.186Z,1001.47
2017-11-11T05:04:41.782Z,1001.51
2017-11-11T05:05:22.387Z,1001.48
2017-11-11T05:06:02.984Z,1001.45
2017-11-11T05:06:43.582Z,1001.52
2017-11-11T05:07:24.185Z,1001.55
2017-11-11T05:08:04.788Z,1001.53
2017-11-11T05:08:45.370Z,1001.51
2017-11-11T05:09:25.949Z,1001.56
2017-11-11T05:10:06.532Z,1001.54
2017-11-11T05:10:47.126Z,1001.49
2017-11-11T05:11:27.708Z,1001.49
2017-11-11T05:12:08.289Z,1001.5
2017-11-11T05:12:48.892Z,1001.55
2017-11-11T05:13:29.482Z,1001.47
2017-11-11T05:14:10.056Z,1001.47
2017-11-11T05:14:50.645Z,1001.47
2017-11-11T05:15:31.242Z,1001.49
2017-11-11T05:16:11.842Z,1001.44
2017-11-11T05:16:52.436Z,1001.39
2017-11-11T05:17:33.006Z,1001.42
2017-11-11T05:18:13.593Z,1001.42
2017-11-11T05:18:54.292Z,1001.48
2017-11-11T05:19:34.876Z,1001.48
2017-11-11T05:20:15.466Z,1001.44
2017-11-11T05:20:56.044Z,1001.54
2017-11-11T05:21:36.632Z,1001.53
2017-11-11T05:22:17.204Z,1001.49
2017-11-11T05:22:57.793Z,1001.46
2017-11-11T05:23:38.359Z,1001.5
2017-11-11T05:24:18.953Z,1001.5
2017-11-11T05:24:59.558Z,1001.47
2017-11-11T05:25:40.144Z,1001.48
2017-11-11T05:26:20.752Z,1001.48
2017-11-11T05:27:01.338Z,1001.49
2017-11-11T05:27:41.917Z,1001.5
2017-11-11T05:28:22.498Z,1001.52
2017-11-11T05:29:03.097Z,1001.57
2017-11-11T05:29:43.672Z,1001.51
2017-11-11T05:30:24.272Z,1001.53
2017-11-11T05:31:04.865Z,1001.56
2017-11-11T05:31:45.455Z,1001.48
2017-11-11T05:32:26.035Z,1001.45
2017-11-11T05:33:06.613Z,1001.43
2017-11-11T05:33:47.201Z,1001.45
2017-11-11T05:34:27.773Z,1001.45
2017-11-11T05:35:08.365Z,1001.45
2017-11-11T05:35:48.934Z,1001.52
2017-11-11T05:36:29.503Z,1001.51
2017-11-11T05:37:10.083Z,1001.46
2017-11-11T05:37:50.678Z,1001.49
2017-11-11T05:38:31.285Z,1001.51
2017-11-11T05:39:11.874Z,1001.44
2017-11-11T05:39:52.493Z,1001.56
2017-11-11T05:40:33.100Z,1001.54
2017-11-11T05:41:13.686Z,1001.52
2017-11-11T05:41:54.260Z,1001.5
2017-11-11T05:42:34.876Z,1001.54
2017-11-11T05:43:15.468Z,1001.61
2017-11-11T05:43:56.091Z,1001.49
2017-11-11T05:44:36.680Z,1001.53
2017-11-11T05:45:17.278Z,1001.55
2017-11-11T05:45:57.833Z,1001.52
2017-11-11T05:46:38.429Z,1001.51
2017-11-11T05:47:19.014Z,1001.52
2017-11-11T05:47:59.610Z,1001.51
2017-11-11T05:48:40.180Z,1001.54
2017-11-11T05:49:20.810Z,1001.51
2017-11-11T05:50:01.409Z,1001.5
2017-11-11T05:50:42.046Z,1001.55
2017-11-11T05:51:22.604Z,1001.56
2017-11-11T05:52:03.202Z,1001.56
2017-11-11T05:52:43.806Z,1001.56
2017-11-11T05:53:24.408Z,1001.48
2017-11-11T05:54:04.994Z,1001.49
2017-11-11T05:54:45.598Z,1001.59
2017-11-11T05:55:26.236Z,1001.43
2017-11-11T05:56:06.813Z,1001.49
2017-11-11T05:56:47.399Z,1001.43
2017-11-11T05:57:27.967Z,1001.49
2017-11-11T05:58:08.541Z,1001.44
2017-11-11T05:58:49.114Z,1001.47
2017-11-11T05:59:29.705Z,1001.5
2017-11-11T06:00:10.329Z,1001.43
2017-11-11T06:00:50.909Z,1001.44
2017-11-11T06:01:31.526Z,1001.49
2017-11-11T06:02:12.114Z,1001.43
2017-11-11T06:02:52.703Z,1001.46
2017-11-11T06:03:33.320Z,1001.37
2017-11-11T06:04:13.906Z,1001.41
2017-11-11T06:04:54.495Z,1001.43
2017-11-11T06:05:35.067Z,1001.45
2017-11-11T06:06:15.631Z,1001.44
2017-11-11T06:06:56.237Z,1001.4
2017-11-11T06:07:36.822Z,1001.4
2017-11-11T06:08:17.415Z,1001.4
2017-11-11T06:08:57.985Z,1001.4
2017-11-11T06:09:38.576Z,1001.43
2017-11-11T06:10:19.179Z,1001.41
2017-11-11T06:10:59.804Z,1001.43
2017-11-11T06:11:40.394Z,1001.44
2017-11-11T06:12:20.990Z,1001.42
2017-11-11T06:13:01.595Z,1001.37
2017-11-11T06:13:42.180Z,1001.43
2017-11-11T06:14:22.774Z,1001.4
2017-11-11T06:15:03.353Z,1001.52
2017-11-11T06:15:43.931Z,1001.46
2017-11-11T06:16:24.545Z,1001.49
2017-11-11T06:17:05.144Z,1001.49
2017-11-11T06:17:45.771Z,1001.5
2017-11-11T06:18:26.376Z,1001.5
2017-11-11T06:19:06.963Z,1001.48
2017-11-11T06:19:47.534Z,1001.53
2017-11-11T06:20:28.131Z,1001.46
2017-11-11T06:21:08.727Z,1001.5
2017-11-11T06:21:49.383Z,1001.58
2017-11-11T06:22:29.954Z,1001.49
2017-11-11T06:23:10.534Z,1001.48
2017-11-11T06:23:51.129Z,1001.5
2017-11-11T06:24:31.729Z,1001.52
2017-11-11T06:25:12.310Z,1001.5
2017-11-11T06:25:52.892Z,1001.46
2017-11-11T06:26:33.514Z,1001.45
2017-11-11T06:27:14.149Z,1001.47
2017-11-11T06:27:54.748Z,1001.49
2017-11-11T06:28:35.326Z,1001.47
2017-11-11T06:29:15.942Z,1001.5
2017-11-11T06:29:56.527Z,1001.45
2017-11-11T06:30:37.114Z,1001.53
2017-11-11T06:31:17.681Z,1001.55
2017-11-11T06:31:58.281Z,1001.46
2017-11-11T06:32:38.850Z,1001.49
2017-11-11T06:33:19.464Z,1001.44
2017-11-11T06:34:00.047Z,1001.5
2017-11-11T06:34:40.649Z,1001.46
2017-11-11T06:35:21.229Z,1001.47
2017-11-11T06:36:01.808Z,1001.49
2017-11-11T06:36:42.403Z,1001.44
2017-11-11T06:37:22.996Z,1001.52
2017-11-11T06:38:03.616Z,1001.5
2017-11-11T06:38:44.182Z,1001.5
2017-11-11T06:39:24.774Z,1001.53
2017-11-11T06:40:05.361Z,1001.49
2017-11-11T06:40:45.933Z,1001.5
2017-11-11T06:41:26.502Z,1001.53
2017-11-11T06:42:07.085Z,1001.49
2017-11-11T06:42:47.685Z,1001.54
2017-11-11T06:43:28.282Z,1001.52
2017-11-11T06:44:08.920Z,1001.51
2017-11-11T06:44:49.510Z,1001.49
2017-11-11T06:45:30.085Z,1001.56
2017-11-11T06:46:10.668Z,1001.56
2017-11-11T06:46:51.263Z,1001.51
2017-11-11T06:47:31.830Z,1001.51
2017-11-11T06:48:12.415Z,1001.49
2017-11-11T06:48:53.020Z,1001.53
2017-11-11T06:49:33.588Z,1001.51
2017-11-11T06:50:14.174Z,1001.55
2017-11-11T06:50:54.784Z,1001.49
2017-11-11T06:51:35.379Z,1001.46
2017-11-11T06:52:15.952Z,1001.46
2017-11-11T06:52:56.566Z,1001.47
2017-11-11T06:53:37.134Z,1001.45
2017-11-11T06:54:17.709Z,1001.42
2017-11-11T06:54:58.309Z,1001.42
2017-11-11T06:55:38.967Z,1001.42
2017-11-11T06:56:19.495Z,1001.41
2017-11-11T06:57:00.081Z,1001.38
2017-11-11T06:57:40.666Z,1001.42
2017-11-11T06:58:21.243Z,1001.4
2017-11-11T06:59:01.836Z,1001.4
2017-11-11T06:59:42.454Z,1001.42
2017-11-11T07:00:23.025Z,1001.4
2017-11-11T07:01:03.597Z,1001.36
2017-11-11T07:01:44.215Z,1001.38
2017-11-11T07:02:24.878Z,1001.4
2017-11-11T07:03:05.476Z,1001.36
2017-11-11T07:03:46.250Z,1001.42
2017-11-11T07:04:26.834Z,1001.38
2017-11-11T07:05:07.422Z,1001.34
2017-11-11T07:05:48.035Z,1001.35
2017-11-11T07:06:28.611Z,1001.36
2017-11-11T07:07:09.263Z,1001.37
2017-11-11T07:07:49.792Z,1001.39
2017-11-11T07:08:30.399Z,1001.35
2017-11-11T07:09:10.981Z,1001.4
2017-11-11T07:09:51.627Z,1001.4
2017-11-11T07:10:32.212Z,1001.45
2017-11-11T07:11:12.820Z,1001.38
2017-11-11T07:11:53.498Z,1001.39
2017-11-11T07:12:34.093Z,1001.42
2017-11-11T07:13:14.840Z,1001.51
2017-11-11T07:13:55.962Z,1001.45
2017-11-11T07:14:36.545Z,1001.44
2017-11-11T07:15:17.158Z,1001.4
2017-11-11T07:15:57.964Z,1001.44
2017-11-11T07:16:38.532Z,1001.39
2017-11-11T07:17:19.116Z,1001.4
2017-11-11T07:17:59.692Z,1001.42
2017-11-11T07:18:40.270Z,1001.4
2017-11-11T07:19:20.868Z,1001.41
2017-11-11T07:20:01.551Z,1001.4
2017-11-11T07:20:42.148Z,1001.41
2017-11-11T07:21:22.750Z,1001.39
2017-11-11T07:22:03.419Z,1001.35
2017-11-11T07:22:43.979Z,1001.36
2017-11-11T07:23:24.744Z,1001.38
2017-11-11T07:24:05.453Z,1001.36
2017-11-11T07:24:46.063Z,1001.43
2017-11-11T07:25:26.674Z,1001.35
2017-11-11T07:26:07.283Z,1001.36
2017-11-11T07:26:47.931Z,1001.39
2017-11-11T07:27:29.641Z,1001.41
2017-11-11T07:28:10.249Z,1001.36
2017-11-11T07:28:50.832Z,1001.37
2017-11-11T07:29:31.479Z,1001.38
2017-11-11T07:30:12.126Z,1001.41
2017-11-11T07:30:52.776Z,1001.42
2017-11-11T07:31:33.522Z,1001.36
2017-11-11T07:32:14.460Z,1001.38
2017-11-11T07:32:55.060Z,1001.35
2017-11-11T07:33:35.670Z,1001.4
2017-11-11T07:34:16.304Z,1001.36
2017-11-11T07:34:57.123Z,1001.3
2017-11-11T07:35:37.874Z,1001.33
2017-11-11T07:36:18.466Z,1001.36
2017-11-11T07:36:59.061Z,1001.34
2017-11-11T07:37:39.654Z,1001.33
2017-11-11T07:38:20.290Z,1001.39
2017-11-11T07:39:00.914Z,1001.39
2017-11-11T07:39:41.540Z,1001.36
2017-11-11T07:40:22.179Z,1001.36
2017-11-11T07:41:02.962Z,1001.34
2017-11-11T07:41:43.753Z,1001.34
2017-11-11T07:42:24.350Z,1001.32
2017-11-11T07:43:04.943Z,1001.35
2017-11-11T07:43:45.517Z,1001.34
2017-11-11T07:44:26.112Z,1001.33
2017-11-11T07:45:06.690Z,1001.35
2017-11-11T07:45:47.316Z,1001.29
2017-11-11T07:46:27.902Z,1001.29
2017-11-11T07:47:08.495Z,1001.31
2017-11-11T07:47:49.104Z,1001.3
2017-11-11T07:48:29.685Z,1001.25
2017-11-11T07:49:10.276Z,1001.3
2017-11-11T07:49:50.860Z,1001.35
2017-11-11T07:50:31.461Z,1001.33
2017-11-11T07:51:12.066Z,1001.29
2017-11-11T07:51:52.641Z,1001.37
2017-11-11T07:52:33.253Z,1001.34
2017-11-11T07:53:13.853Z,1001.25
2017-11-11T07:53:54.424Z,1001.38
2017-11-11T07:54:35.009Z,1001.41
2017-11-11T07:55:15.619Z,1001.43
2017-11-11T07:55:56.208Z,1001.34
2017-11-11T07:56:36.783Z,1001.47
2017-11-11T07:57:17.389Z,1001.45
2017-11-11T07:57:57.973Z,1001.43
2017-11-11T07:58:38.599Z,1001.42
2017-11-11T07:59:19.249Z,1001.37
2017-11-11T07:59:59.829Z,1001.37
2017-11-11T08:00:40.410Z,1001.47
2017-11-11T08:01:21.299Z,1001.42
2017-11-11T08:02:01.885Z,1001.43
2017-11-11T08:02:42.512Z,1001.41
2017-11-11T08:03:23.127Z,1001.43
2017-11-11T08:04:03.722Z,1001.39
2017-11-11T08:04:44.319Z,1001.42
2017-11-11T08:05:24.934Z,1001.43
2017-11-11T08:06:05.519Z,1001.43
2017-11-11T08:06:46.191Z,1001.43
2017-11-11T08:07:26.788Z,1001.42
2017-11-11T08:08:07.402Z,1001.43
2017-11-11T08:08:47.986Z,1001.39
2017-11-11T08:09:28.617Z,1001.37
2017-11-11T08:10:09.191Z,1001.46
2017-11-11T08:10:50.456Z,1001.43
2017-11-11T08:11:31.058Z,1001.38
2017-11-11T08:12:11.673Z,1001.36
2017-11-11T08:12:52.296Z,1001.29